首页
METAR-TAF:

METAR-TAF

机场 :

莫比尔, 阿拉巴马州, 美国

纬度: 30-36-50N, 经度: 088-03-48W, 海拔: 7米

当前天气观测

该预报发布于42分钟前的15:53 UTC
风速4节,风向东转东北
温度 19°C
湿度 49%
气压 1020 hPa
能見度: 16.1公里
天空无云

METAR: KBFM 021553Z 07004KT 10SM CLR 19/08 A3012 RMK AO2 SLP200 T01890078

时间: 11:35 (16:35 UTC)

预报

该预报发布于5小时和10分钟前的11:25 UTC
预报有效从02日的 12点(UTC)到 03日的 12点(UTC)
风速6节,风向北转东北
能見度: 10公里
少量云层高于25000英尺
从 02日的 1800点(UTC)
风速5节,风向东转东北
能見度: 10公里
散云层高于25000英尺
从 03日的 0900点(UTC)
风速4节,风向东转东北
能見度: 10公里
阴天层高于20000英尺

TAF: KBFM 021125Z 0212/0312 03006KT P6SM FEW250 FM021800 07005KT P6SM SCT250 FM030900 06004KT P6SM OVC200

超过4000个机场的气象观测和天气预报(METAR&TAF报告)。

可查询的气象台以黄色和红色小点在地图上表示。

将鼠标移到小点上方,可查看气象台名称。

然后点击查看天气观测和预报。

如需切换地图:点击带黑十字的绿色按钮放大地图;点击带横线的绿色按钮缩小地图;或者点击绿色箭头查看邻近地区的地图。


METAR-TAF: